Terminal Aerodrome Forecast
Issued by NWS

Home | Current Version | Previous Version | Text Only | Print | Product List | Glossary On
Versions: 1 2 3 4 5 6 7 8 9 10 11 12 13 14 15 16 17 18 19 20 21
000
FTUS43 KDLH 200500
TAFHIB
TAF
KHIB 200520Z 2006/2106 34007KT P6SM BKN035
     FM200900 31009KT P6SM SCT015 BKN028
     FM201200 35008G13KT P6SM BKN013 OVC026
     FM201600 35011KT P6SM BKN025 BKN040
     FM202000 01007KT P6SM SCT035 BKN050
     FM210200 VRB04KT P6SM BKN040=

USA.gov is the U.S. government's official web portal to all federal, state and local government web resources and services.